createdAt,value
2022-09-01T06:36:13.053Z,93.00
2022-09-01T06:38:40.269Z,92.80
2022-09-01T06:41:09.780Z,92.40
2022-09-01T06:43:41.724Z,92.20
2022-09-01T10:17:40.545Z,73.30
2022-09-01T10:20:21.162Z,71.70
2022-09-01T10:22:50.823Z,73.60
2022-09-01T10:25:24.707Z,72.50
2022-09-01T10:30:48.605Z,72.80
2022-09-01T10:33:22.111Z,72.80
2022-09-01T10:35:52.413Z,73.90
2022-09-01T10:38:26.472Z,73.10
2022-09-01T10:41:21.680Z,73.10
2022-09-01T10:43:50.431Z,72.60
2022-09-01T10:46:38.671Z,73.80
2022-09-01T10:49:20.103Z,74.00
2022-09-01T10:51:56.721Z,73.70
2022-09-01T10:54:57.515Z,71.00
2022-09-01T10:57:44.646Z,71.60
2022-09-01T11:00:39.382Z,70.70
2022-09-01T11:06:17.718Z,70.10
2022-09-01T11:08:58.366Z,70.00
2022-09-01T11:11:46.682Z,70.70
2022-09-01T11:14:23.189Z,70.00
2022-09-01T11:17:15.756Z,70.20
2022-09-01T11:19:47.466Z,71.70
2022-09-01T11:22:14.279Z,67.20
2022-09-01T11:24:41.712Z,67.70
2022-09-01T11:27:12.186Z,69.20
2022-09-01T11:29:59.729Z,68.00
2022-09-01T11:32:38.296Z,68.50
2022-09-01T11:35:18.297Z,68.50
2022-09-01T11:37:50.522Z,65.50
2022-09-01T11:40:27.145Z,65.50
2022-09-01T11:43:13.658Z,66.30
2022-09-01T11:46:15.109Z,65.30
2022-09-01T11:48:47.092Z,66.20
2022-09-01T11:51:18.867Z,65.80
2022-09-01T11:53:46.836Z,66.70
2022-09-01T11:56:18.075Z,66.70
2022-09-01T11:58:45.021Z,66.30
2022-09-01T12:01:30.768Z,65.60
2022-09-01T12:03:58.947Z,65.10
2022-09-01T12:06:32.470Z,64.80
2022-09-01T12:09:03.028Z,65.40
2022-09-01T12:11:36.012Z,65.10
2022-09-01T12:14:10.870Z,66.10
2022-09-01T12:16:42.611Z,66.20
2022-09-01T12:19:24.971Z,66.30
2022-09-01T12:22:17.292Z,66.50
2022-09-01T12:24:49.917Z,65.60
2022-09-01T12:27:17.086Z,65.00
2022-09-01T12:29:44.542Z,65.20
2022-09-01T12:32:12.367Z,65.20
2022-09-01T12:34:41.242Z,65.40
2022-09-01T12:37:25.342Z,65.20
2022-09-01T17:37:59.449Z,62.90
2022-09-01T17:41:07.625Z,63.00
2022-09-01T17:43:57.659Z,63.40
2022-09-01T17:46:45.999Z,63.60
2022-09-01T17:49:18.055Z,63.80
2022-09-01T17:51:55.824Z,63.60
2022-09-01T17:54:43.947Z,63.90
2022-09-01T17:57:29.641Z,64.00
2022-09-01T18:00:06.347Z,63.80
2022-09-01T18:02:50.603Z,64.00
2022-09-01T18:05:24.493Z,65.00
2022-09-01T18:07:58.037Z,65.70
2022-09-01T18:10:47.977Z,66.80
2022-09-01T18:13:36.201Z,66.50
2022-09-01T18:16:30.738Z,66.80
2022-09-01T18:19:16.379Z,66.50
2022-09-01T18:21:52.265Z,66.20
2022-09-01T18:24:34.200Z,67.00
2022-09-01T18:27:03.681Z,67.10
2022-09-01T18:29:31.682Z,66.50
2022-09-01T18:31:58.595Z,67.00
2022-09-01T18:34:43.525Z,67.20
2022-09-01T18:37:30.287Z,65.90
2022-09-01T18:40:21.642Z,66.10
2022-09-01T18:43:06.680Z,66.10
2022-09-01T18:45:54.301Z,65.50
2022-09-01T18:48:39.843Z,65.90
2022-09-01T18:51:24.588Z,65.20
2022-09-01T18:53:59.634Z,64.90
2022-09-01T18:56:56.874Z,65.60
2022-09-01T18:59:36.687Z,65.00
2022-09-01T19:02:27.529Z,65.00
2022-09-01T19:05:14.184Z,64.60
2022-09-01T19:07:59.549Z,65.00
2022-09-01T19:10:39.895Z,65.20
2022-09-01T19:13:31.575Z,65.10
2022-09-01T19:16:19.873Z,64.70
2022-09-01T19:19:20.829Z,65.00
2022-09-01T19:21:51.833Z,64.80
2022-09-01T19:24:27.753Z,65.00
2022-09-01T19:27:00.244Z,65.20
2022-09-01T19:29:33.213Z,65.30
2022-09-01T19:32:07.464Z,65.40
2022-09-01T19:34:43.287Z,65.60
2022-09-01T19:37:11.392Z,65.80
2022-09-01T19:39:44.503Z,66.00
2022-09-01T19:42:36.078Z,65.90
2022-09-01T19:45:17.556Z,65.90
2022-09-01T19:48:06.210Z,66.00
2022-09-01T19:50:41.842Z,66.50
2022-09-01T19:53:33.864Z,66.20
2022-09-01T19:56:07.333Z,66.40
2022-09-01T19:58:51.732Z,66.60
2022-09-01T20:01:37.989Z,66.70
2022-09-01T20:04:17.378Z,66.80
2022-09-01T20:06:51.032Z,66.50
2022-09-01T20:09:46.267Z,66.50
2022-09-01T20:12:41.856Z,66.40
2022-09-01T20:15:30.197Z,66.70
2022-09-01T20:18:04.502Z,66.50
2022-09-01T20:20:47.419Z,66.70
2022-09-01T20:23:46.401Z,66.50
2022-09-01T20:26:23.269Z,66.50
2022-09-01T20:29:08.617Z,66.30
2022-09-01T20:31:45.644Z,66.40
2022-09-01T20:34:19.834Z,65.90
2022-09-01T20:36:51.841Z,66.20
2022-09-01T20:39:49.540Z,66.00
2022-09-01T20:42:23.396Z,66.60
